sensor_id;sensor_type;location;lat;lon;timestamp;P1;durP1;ratioP1;P2;durP2;ratioP2
66856;SDS011;53766;50.280;19.160;2024-02-15T00:01:05;25.17;;;13.25;;
66856;SDS011;53766;50.280;19.160;2024-02-15T00:03:39;25.30;;;13.93;;
66856;SDS011;53766;50.280;19.160;2024-02-15T00:06:07;25.08;;;13.57;;
66856;SDS011;53766;50.280;19.160;2024-02-15T00:08:34;23.75;;;13.63;;
66856;SDS011;53766;50.280;19.160;2024-02-15T00:11:02;26.27;;;14.10;;
66856;SDS011;53766;50.280;19.160;2024-02-15T00:13:30;23.90;;;13.93;;
66856;SDS011;53766;50.280;19.160;2024-02-15T00:16:00;23.77;;;13.85;;
66856;SDS011;53766;50.280;19.160;2024-02-15T00:18:28;26.08;;;13.80;;
66856;SDS011;53766;50.280;19.160;2024-02-15T00:20:55;23.98;;;13.25;;
66856;SDS011;53766;50.280;19.160;2024-02-15T00:23:23;24.88;;;13.48;;
66856;SDS011;53766;50.280;19.160;2024-02-15T00:25:51;23.63;;;13.82;;
66856;SDS011;53766;50.280;19.160;2024-02-15T00:28:18;25.73;;;13.18;;
66856;SDS011;53766;50.280;19.160;2024-02-15T00:30:47;25.90;;;13.88;;
66856;SDS011;53766;50.280;19.160;2024-02-15T00:33:14;27.33;;;14.35;;
66856;SDS011;53766;50.280;19.160;2024-02-15T00:35:43;24.75;;;13.57;;
66856;SDS011;53766;50.280;19.160;2024-02-15T00:38:11;28.33;;;15.35;;
66856;SDS011;53766;50.280;19.160;2024-02-15T00:40:40;27.67;;;14.63;;
66856;SDS011;53766;50.280;19.160;2024-02-15T00:43:07;26.25;;;14.07;;
66856;SDS011;53766;50.280;19.160;2024-02-15T00:45:35;24.70;;;14.25;;
66856;SDS011;53766;50.280;19.160;2024-02-15T00:48:03;26.73;;;14.88;;
66856;SDS011;53766;50.280;19.160;2024-02-15T00:50:33;24.73;;;14.02;;
66856;SDS011;53766;50.280;19.160;2024-02-15T00:53:01;25.95;;;13.75;;
66856;SDS011;53766;50.280;19.160;2024-02-15T00:55:28;24.95;;;14.38;;
66856;SDS011;53766;50.280;19.160;2024-02-15T00:57:56;23.95;;;13.75;;
66856;SDS011;53766;50.280;19.160;2024-02-15T01:00:24;27.05;;;14.60;;
66856;SDS011;53766;50.280;19.160;2024-02-15T01:02:53;26.25;;;14.45;;
66856;SDS011;53766;50.280;19.160;2024-02-15T01:05:21;24.63;;;14.20;;
66856;SDS011;53766;50.280;19.160;2024-02-15T01:07:49;25.58;;;15.48;;
66856;SDS011;53766;50.280;19.160;2024-02-15T01:10:16;26.63;;;14.27;;
66856;SDS011;53766;50.280;19.160;2024-02-15T01:12:44;27.17;;;15.23;;
66856;SDS011;53766;50.280;19.160;2024-02-15T01:15:12;27.75;;;15.23;;
66856;SDS011;53766;50.280;19.160;2024-02-15T01:17:39;27.23;;;15.07;;
66856;SDS011;53766;50.280;19.160;2024-02-15T01:20:07;27.20;;;15.63;;
66856;SDS011;53766;50.280;19.160;2024-02-15T01:22:35;25.10;;;14.35;;
66856;SDS011;53766;50.280;19.160;2024-02-15T01:25:03;26.27;;;14.65;;
66856;SDS011;53766;50.280;19.160;2024-02-15T01:27:31;26.73;;;14.27;;
66856;SDS011;53766;50.280;19.160;2024-02-15T01:29:58;26.05;;;14.18;;
66856;SDS011;53766;50.280;19.160;2024-02-15T01:32:26;26.40;;;13.82;;
66856;SDS011;53766;50.280;19.160;2024-02-15T01:34:54;27.80;;;14.70;;
66856;SDS011;53766;50.280;19.160;2024-02-15T01:37:22;27.23;;;15.02;;
66856;SDS011;53766;50.280;19.160;2024-02-15T01:39:50;24.48;;;14.15;;
66856;SDS011;53766;50.280;19.160;2024-02-15T01:42:18;24.10;;;13.68;;
66856;SDS011;53766;50.280;19.160;2024-02-15T01:44:46;23.42;;;14.25;;
66856;SDS011;53766;50.280;19.160;2024-02-15T01:47:17;26.85;;;14.60;;
66856;SDS011;53766;50.280;19.160;2024-02-15T01:49:50;23.67;;;14.55;;
66856;SDS011;53766;50.280;19.160;2024-02-15T01:52:19;26.20;;;14.18;;
66856;SDS011;53766;50.280;19.160;2024-02-15T01:54:47;25.83;;;14.82;;
66856;SDS011;53766;50.280;19.160;2024-02-15T01:57:16;26.23;;;14.05;;
66856;SDS011;53766;50.280;19.160;2024-02-15T01:59:43;25.50;;;14.27;;
66856;SDS011;53766;50.280;19.160;2024-02-15T02:02:11;26.13;;;14.45;;
66856;SDS011;53766;50.280;19.160;2024-02-15T02:04:41;25.63;;;14.07;;
66856;SDS011;53766;50.280;19.160;2024-02-15T02:07:09;26.20;;;14.35;;
66856;SDS011;53766;50.280;19.160;2024-02-15T02:09:38;26.95;;;14.40;;
66856;SDS011;53766;50.280;19.160;2024-02-15T02:12:06;23.50;;;14.20;;
66856;SDS011;53766;50.280;19.160;2024-02-15T02:14:35;24.02;;;13.48;;
66856;SDS011;53766;50.280;19.160;2024-02-15T02:17:14;26.00;;;13.90;;
66856;SDS011;53766;50.280;19.160;2024-02-15T02:19:42;25.25;;;13.73;;
66856;SDS011;53766;50.280;19.160;2024-02-15T02:22:11;29.17;;;15.23;;
66856;SDS011;53766;50.280;19.160;2024-02-15T02:25:01;25.13;;;14.00;;
66856;SDS011;53766;50.280;19.160;2024-02-15T02:27:33;23.92;;;13.55;;
66856;SDS011;53766;50.280;19.160;2024-02-15T02:30:03;26.27;;;14.23;;
66856;SDS011;53766;50.280;19.160;2024-02-15T02:32:42;25.20;;;13.45;;
66856;SDS011;53766;50.280;19.160;2024-02-15T02:35:10;24.42;;;13.45;;
66856;SDS011;53766;50.280;19.160;2024-02-15T02:37:43;26.33;;;13.93;;
66856;SDS011;53766;50.280;19.160;2024-02-15T02:40:10;27.33;;;13.63;;
66856;SDS011;53766;50.280;19.160;2024-02-15T02:42:46;23.27;;;13.52;;
66856;SDS011;53766;50.280;19.160;2024-02-15T02:45:13;25.50;;;13.73;;
66856;SDS011;53766;50.280;19.160;2024-02-15T02:47:41;25.17;;;14.07;;
66856;SDS011;53766;50.280;19.160;2024-02-15T02:50:09;25.52;;;13.80;;
66856;SDS011;53766;50.280;19.160;2024-02-15T02:52:36;24.20;;;13.77;;
66856;SDS011;53766;50.280;19.160;2024-02-15T02:55:06;25.45;;;13.90;;
66856;SDS011;53766;50.280;19.160;2024-02-15T02:57:35;23.90;;;13.32;;
66856;SDS011;53766;50.280;19.160;2024-02-15T03:00:07;23.80;;;13.70;;
66856;SDS011;53766;50.280;19.160;2024-02-15T03:02:42;23.08;;;12.95;;
66856;SDS011;53766;50.280;19.160;2024-02-15T03:05:10;23.52;;;12.98;;
66856;SDS011;53766;50.280;19.160;2024-02-15T03:07:39;25.10;;;13.98;;
66856;SDS011;53766;50.280;19.160;2024-02-15T03:10:08;25.00;;;13.63;;
66856;SDS011;53766;50.280;19.160;2024-02-15T03:12:37;26.25;;;13.77;;
66856;SDS011;53766;50.280;19.160;2024-02-15T03:15:06;22.23;;;13.13;;
66856;SDS011;53766;50.280;19.160;2024-02-15T03:17:39;23.63;;;13.05;;
66856;SDS011;53766;50.280;19.160;2024-02-15T03:20:13;25.67;;;13.02;;
66856;SDS011;53766;50.280;19.160;2024-02-15T03:22:53;22.80;;;13.57;;
66856;SDS011;53766;50.280;19.160;2024-02-15T03:25:22;22.63;;;12.85;;
66856;SDS011;53766;50.280;19.160;2024-02-15T03:27:51;23.42;;;13.13;;
66856;SDS011;53766;50.280;19.160;2024-02-15T03:30:20;24.98;;;13.32;;
66856;SDS011;53766;50.280;19.160;2024-02-15T03:32:49;27.92;;;14.73;;
66856;SDS011;53766;50.280;19.160;2024-02-15T03:35:19;23.23;;;13.30;;
66856;SDS011;53766;50.280;19.160;2024-02-15T03:37:49;24.10;;;13.48;;
66856;SDS011;53766;50.280;19.160;2024-02-15T03:40:20;24.65;;;13.98;;
66856;SDS011;53766;50.280;19.160;2024-02-15T03:42:49;25.25;;;14.05;;
66856;SDS011;53766;50.280;19.160;2024-02-15T03:45:20;21.40;;;12.88;;
66856;SDS011;53766;50.280;19.160;2024-02-15T03:47:48;25.67;;;13.27;;
66856;SDS011;53766;50.280;19.160;2024-02-15T03:50:17;25.02;;;13.70;;
66856;SDS011;53766;50.280;19.160;2024-02-15T03:52:47;24.00;;;13.45;;
66856;SDS011;53766;50.280;19.160;2024-02-15T03:55:15;21.17;;;13.00;;
66856;SDS011;53766;50.280;19.160;2024-02-15T03:57:42;22.20;;;12.88;;
66856;SDS011;53766;50.280;19.160;2024-02-15T04:00:14;25.95;;;14.43;;
66856;SDS011;53766;50.280;19.160;2024-02-15T04:02:48;22.05;;;13.13;;
66856;SDS011;53766;50.280;19.160;2024-02-15T04:05:16;23.25;;;13.23;;
66856;SDS011;53766;50.280;19.160;2024-02-15T04:07:46;23.88;;;13.40;;
66856;SDS011;53766;50.280;19.160;2024-02-15T04:10:13;24.40;;;13.52;;
66856;SDS011;53766;50.280;19.160;2024-02-15T04:12:48;24.15;;;13.77;;
66856;SDS011;53766;50.280;19.160;2024-02-15T04:15:15;23.30;;;12.75;;
66856;SDS011;53766;50.280;19.160;2024-02-15T04:17:46;22.98;;;12.80;;
66856;SDS011;53766;50.280;19.160;2024-02-15T04:20:28;25.05;;;13.20;;
66856;SDS011;53766;50.280;19.160;2024-02-15T04:22:57;24.90;;;13.43;;
66856;SDS011;53766;50.280;19.160;2024-02-15T04:25:26;22.75;;;12.27;;
66856;SDS011;53766;50.280;19.160;2024-02-15T04:27:55;22.58;;;12.68;;
66856;SDS011;53766;50.280;19.160;2024-02-15T04:30:24;21.40;;;12.68;;
66856;SDS011;53766;50.280;19.160;2024-02-15T04:32:53;24.40;;;13.27;;
66856;SDS011;53766;50.280;19.160;2024-02-15T04:35:29;23.02;;;13.10;;
66856;SDS011;53766;50.280;19.160;2024-02-15T04:37:58;22.70;;;12.07;;
66856;SDS011;53766;50.280;19.160;2024-02-15T04:40:25;25.30;;;13.07;;
66856;SDS011;53766;50.280;19.160;2024-02-15T04:42:55;23.38;;;13.07;;
66856;SDS011;53766;50.280;19.160;2024-02-15T04:45:39;22.77;;;11.82;;
66856;SDS011;53766;50.280;19.160;2024-02-15T04:48:08;26.95;;;12.45;;
66856;SDS011;53766;50.280;19.160;2024-02-15T04:50:35;23.00;;;12.98;;
66856;SDS011;53766;50.280;19.160;2024-02-15T04:53:03;23.33;;;13.57;;
66856;SDS011;53766;50.280;19.160;2024-02-15T04:55:33;19.70;;;12.30;;
66856;SDS011;53766;50.280;19.160;2024-02-15T04:58:01;24.20;;;13.35;;
66856;SDS011;53766;50.280;19.160;2024-02-15T05:00:29;22.23;;;12.63;;
66856;SDS011;53766;50.280;19.160;2024-02-15T05:02:57;21.58;;;12.55;;
66856;SDS011;53766;50.280;19.160;2024-02-15T05:05:25;27.35;;;12.98;;
66856;SDS011;53766;50.280;19.160;2024-02-15T05:07:54;20.50;;;12.40;;
66856;SDS011;53766;50.280;19.160;2024-02-15T05:10:22;22.75;;;12.45;;
66856;SDS011;53766;50.280;19.160;2024-02-15T05:12:49;22.42;;;12.73;;
66856;SDS011;53766;50.280;19.160;2024-02-15T05:15:17;23.30;;;12.95;;
66856;SDS011;53766;50.280;19.160;2024-02-15T05:17:46;22.45;;;12.43;;
66856;SDS011;53766;50.280;19.160;2024-02-15T05:20:15;21.85;;;12.70;;
66856;SDS011;53766;50.280;19.160;2024-02-15T05:22:42;21.17;;;11.98;;
66856;SDS011;53766;50.280;19.160;2024-02-15T05:25:18;25.15;;;12.82;;
66856;SDS011;53766;50.280;19.160;2024-02-15T05:27:54;22.00;;;12.55;;
66856;SDS011;53766;50.280;19.160;2024-02-15T05:30:24;25.15;;;12.82;;
66856;SDS011;53766;50.280;19.160;2024-02-15T05:32:52;23.48;;;13.05;;
66856;SDS011;53766;50.280;19.160;2024-02-15T05:35:21;23.63;;;13.20;;
66856;SDS011;53766;50.280;19.160;2024-02-15T05:37:49;23.48;;;12.52;;
66856;SDS011;53766;50.280;19.160;2024-02-15T05:40:22;21.73;;;12.32;;
66856;SDS011;53766;50.280;19.160;2024-02-15T05:42:56;21.50;;;12.15;;
66856;SDS011;53766;50.280;19.160;2024-02-15T05:47:54;21.98;;;12.10;;
66856;SDS011;53766;50.280;19.160;2024-02-15T05:50:22;23.77;;;12.40;;
66856;SDS011;53766;50.280;19.160;2024-02-15T05:52:51;23.88;;;12.95;;
66856;SDS011;53766;50.280;19.160;2024-02-15T05:55:21;22.58;;;12.48;;
66856;SDS011;53766;50.280;19.160;2024-02-15T05:57:49;22.92;;;12.38;;
66856;SDS011;53766;50.280;19.160;2024-02-15T06:00:17;24.65;;;13.90;;
66856;SDS011;53766;50.280;19.160;2024-02-15T06:02:49;27.92;;;14.77;;
66856;SDS011;53766;50.280;19.160;2024-02-15T06:05:18;29.25;;;15.45;;
66856;SDS011;53766;50.280;19.160;2024-02-15T06:07:47;28.95;;;15.02;;
66856;SDS011;53766;50.280;19.160;2024-02-15T06:10:15;31.55;;;16.98;;
66856;SDS011;53766;50.280;19.160;2024-02-15T06:12:43;31.27;;;16.77;;
66856;SDS011;53766;50.280;19.160;2024-02-15T06:15:11;31.60;;;17.67;;
66856;SDS011;53766;50.280;19.160;2024-02-15T06:17:48;33.95;;;18.55;;
66856;SDS011;53766;50.280;19.160;2024-02-15T06:20:16;37.40;;;18.58;;
66856;SDS011;53766;50.280;19.160;2024-02-15T06:22:46;31.70;;;18.13;;
66856;SDS011;53766;50.280;19.160;2024-02-15T06:25:14;33.55;;;17.80;;
66856;SDS011;53766;50.280;19.160;2024-02-15T06:27:43;36.58;;;17.85;;
66856;SDS011;53766;50.280;19.160;2024-02-15T06:30:11;32.15;;;17.33;;
66856;SDS011;53766;50.280;19.160;2024-02-15T06:32:58;33.50;;;16.23;;
66856;SDS011;53766;50.280;19.160;2024-02-15T06:35:45;35.13;;;17.80;;
66856;SDS011;53766;50.280;19.160;2024-02-15T06:38:31;32.88;;;16.75;;
66856;SDS011;53766;50.280;19.160;2024-02-15T06:41:17;32.70;;;16.08;;
66856;SDS011;53766;50.280;19.160;2024-02-15T06:43:48;31.83;;;16.20;;
66856;SDS011;53766;50.280;19.160;2024-02-15T06:46:16;26.63;;;15.98;;
66856;SDS011;53766;50.280;19.160;2024-02-15T06:48:46;29.13;;;16.05;;
66856;SDS011;53766;50.280;19.160;2024-02-15T06:51:14;31.80;;;16.40;;
66856;SDS011;53766;50.280;19.160;2024-02-15T06:53:44;35.53;;;17.05;;
66856;SDS011;53766;50.280;19.160;2024-02-15T06:56:13;29.95;;;15.98;;
66856;SDS011;53766;50.280;19.160;2024-02-15T06:58:41;31.80;;;17.15;;
66856;SDS011;53766;50.280;19.160;2024-02-15T07:01:08;28.15;;;15.95;;
66856;SDS011;53766;50.280;19.160;2024-02-15T07:03:37;30.10;;;16.00;;
66856;SDS011;53766;50.280;19.160;2024-02-15T07:06:06;29.70;;;15.00;;
66856;SDS011;53766;50.280;19.160;2024-02-15T07:08:34;26.55;;;14.80;;
66856;SDS011;53766;50.280;19.160;2024-02-15T07:11:02;27.48;;;15.68;;
66856;SDS011;53766;50.280;19.160;2024-02-15T07:13:31;28.58;;;16.23;;
66856;SDS011;53766;50.280;19.160;2024-02-15T07:15:58;26.88;;;14.90;;
66856;SDS011;53766;50.280;19.160;2024-02-15T07:18:26;28.98;;;15.45;;
66856;SDS011;53766;50.280;19.160;2024-02-15T07:20:56;27.30;;;15.68;;
66856;SDS011;53766;50.280;19.160;2024-02-15T07:23:28;29.30;;;15.90;;
66856;SDS011;53766;50.280;19.160;2024-02-15T07:25:55;27.52;;;14.80;;
66856;SDS011;53766;50.280;19.160;2024-02-15T07:28:23;24.67;;;14.85;;
66856;SDS011;53766;50.280;19.160;2024-02-15T07:30:53;25.38;;;14.80;;
66856;SDS011;53766;50.280;19.160;2024-02-15T07:33:22;25.08;;;14.82;;
66856;SDS011;53766;50.280;19.160;2024-02-15T07:35:51;26.42;;;15.02;;
66856;SDS011;53766;50.280;19.160;2024-02-15T07:38:19;29.83;;;14.90;;
66856;SDS011;53766;50.280;19.160;2024-02-15T07:40:50;27.65;;;15.20;;
66856;SDS011;53766;50.280;19.160;2024-02-15T07:43:17;26.65;;;14.55;;
66856;SDS011;53766;50.280;19.160;2024-02-15T07:45:45;27.50;;;14.70;;
66856;SDS011;53766;50.280;19.160;2024-02-15T07:48:15;26.83;;;14.48;;
66856;SDS011;53766;50.280;19.160;2024-02-15T07:50:43;25.13;;;14.10;;
66856;SDS011;53766;50.280;19.160;2024-02-15T07:53:12;24.65;;;13.93;;
66856;SDS011;53766;50.280;19.160;2024-02-15T07:55:40;26.65;;;14.82;;
66856;SDS011;53766;50.280;19.160;2024-02-15T07:58:09;27.40;;;14.57;;
66856;SDS011;53766;50.280;19.160;2024-02-15T08:00:36;23.90;;;14.40;;
66856;SDS011;53766;50.280;19.160;2024-02-15T08:03:05;26.00;;;14.30;;
66856;SDS011;53766;50.280;19.160;2024-02-15T08:05:33;24.27;;;14.57;;
66856;SDS011;53766;50.280;19.160;2024-02-15T08:08:01;25.92;;;14.38;;
66856;SDS011;53766;50.280;19.160;2024-02-15T08:10:29;25.75;;;14.27;;
66856;SDS011;53766;50.280;19.160;2024-02-15T08:12:57;25.08;;;14.27;;
66856;SDS011;53766;50.280;19.160;2024-02-15T08:15:25;24.70;;;13.82;;
66856;SDS011;53766;50.280;19.160;2024-02-15T08:17:55;25.80;;;13.70;;
66856;SDS011;53766;50.280;19.160;2024-02-15T08:20:23;26.15;;;13.75;;
66856;SDS011;53766;50.280;19.160;2024-02-15T08:22:51;23.13;;;13.75;;
66856;SDS011;53766;50.280;19.160;2024-02-15T08:25:18;27.05;;;14.02;;
66856;SDS011;53766;50.280;19.160;2024-02-15T08:27:47;22.98;;;13.70;;
66856;SDS011;53766;50.280;19.160;2024-02-15T08:30:17;25.08;;;13.88;;
66856;SDS011;53766;50.280;19.160;2024-02-15T08:32:49;23.02;;;13.65;;
66856;SDS011;53766;50.280;19.160;2024-02-15T08:35:17;25.30;;;13.57;;
66856;SDS011;53766;50.280;19.160;2024-02-15T08:37:45;24.60;;;14.30;;
66856;SDS011;53766;50.280;19.160;2024-02-15T08:40:14;24.88;;;13.93;;
66856;SDS011;53766;50.280;19.160;2024-02-15T08:42:43;24.92;;;13.82;;
66856;SDS011;53766;50.280;19.160;2024-02-15T08:45:11;27.98;;;14.38;;
66856;SDS011;53766;50.280;19.160;2024-02-15T08:47:40;23.25;;;13.80;;
66856;SDS011;53766;50.280;19.160;2024-02-15T08:50:09;23.63;;;13.32;;
66856;SDS011;53766;50.280;19.160;2024-02-15T08:52:38;23.38;;;13.48;;
66856;SDS011;53766;50.280;19.160;2024-02-15T08:55:07;25.33;;;13.65;;
66856;SDS011;53766;50.280;19.160;2024-02-15T09:00:11;22.73;;;13.10;;
66856;SDS011;53766;50.280;19.160;2024-02-15T09:02:44;23.55;;;13.93;;
66856;SDS011;53766;50.280;19.160;2024-02-15T09:05:16;22.80;;;12.77;;
66856;SDS011;53766;50.280;19.160;2024-02-15T09:07:45;27.50;;;13.23;;
66856;SDS011;53766;50.280;19.160;2024-02-15T09:10:15;22.25;;;12.75;;
66856;SDS011;53766;50.280;19.160;2024-02-15T09:12:46;20.38;;;12.18;;
66856;SDS011;53766;50.280;19.160;2024-02-15T09:15:17;22.10;;;12.77;;
66856;SDS011;53766;50.280;19.160;2024-02-15T09:17:45;23.83;;;12.88;;
66856;SDS011;53766;50.280;19.160;2024-02-15T09:20:16;23.08;;;13.27;;
66856;SDS011;53766;50.280;19.160;2024-02-15T09:22:48;23.98;;;13.13;;
66856;SDS011;53766;50.280;19.160;2024-02-15T09:25:16;21.98;;;13.00;;
66856;SDS011;53766;50.280;19.160;2024-02-15T09:27:44;22.00;;;12.90;;
66856;SDS011;53766;50.280;19.160;2024-02-15T09:30:13;20.08;;;11.63;;
66856;SDS011;53766;50.280;19.160;2024-02-15T09:32:41;22.80;;;12.45;;
66856;SDS011;53766;50.280;19.160;2024-02-15T09:35:10;21.20;;;12.38;;
66856;SDS011;53766;50.280;19.160;2024-02-15T09:37:45;22.30;;;12.38;;
66856;SDS011;53766;50.280;19.160;2024-02-15T09:40:16;20.35;;;12.25;;
66856;SDS011;53766;50.280;19.160;2024-02-15T09:42:46;21.67;;;12.43;;
66856;SDS011;53766;50.280;19.160;2024-02-15T09:45:14;20.70;;;12.10;;
66856;SDS011;53766;50.280;19.160;2024-02-15T09:47:45;21.35;;;12.38;;
66856;SDS011;53766;50.280;19.160;2024-02-15T09:50:14;20.77;;;12.45;;
66856;SDS011;53766;50.280;19.160;2024-02-15T09:52:44;19.85;;;11.98;;
66856;SDS011;53766;50.280;19.160;2024-02-15T09:55:20;20.08;;;11.93;;
66856;SDS011;53766;50.280;19.160;2024-02-15T09:57:50;22.42;;;11.90;;
66856;SDS011;53766;50.280;19.160;2024-02-15T10:00:18;19.77;;;11.90;;
66856;SDS011;53766;50.280;19.160;2024-02-15T10:02:52;19.80;;;11.80;;
66856;SDS011;53766;50.280;19.160;2024-02-15T10:05:20;18.88;;;11.68;;
66856;SDS011;53766;50.280;19.160;2024-02-15T10:07:50;20.17;;;11.30;;
66856;SDS011;53766;50.280;19.160;2024-02-15T10:10:21;17.92;;;11.25;;
66856;SDS011;53766;50.280;19.160;2024-02-15T10:12:50;17.50;;;10.75;;
66856;SDS011;53766;50.280;19.160;2024-02-15T10:18:01;18.90;;;11.65;;
66856;SDS011;53766;50.280;19.160;2024-02-15T10:20:30;21.17;;;11.98;;
66856;SDS011;53766;50.280;19.160;2024-02-15T10:25:29;20.73;;;11.52;;
66856;SDS011;53766;50.280;19.160;2024-02-15T10:28:03;19.80;;;11.07;;
66856;SDS011;53766;50.280;19.160;2024-02-15T10:30:38;19.52;;;10.90;;
66856;SDS011;53766;50.280;19.160;2024-02-15T10:33:20;19.63;;;11.10;;
66856;SDS011;53766;50.280;19.160;2024-02-15T10:36:06;18.55;;;11.18;;
66856;SDS011;53766;50.280;19.160;2024-02-15T10:38:44;18.40;;;10.30;;
66856;SDS011;53766;50.280;19.160;2024-02-15T10:41:11;18.42;;;11.18;;
66856;SDS011;53766;50.280;19.160;2024-02-15T10:43:39;19.55;;;11.85;;
66856;SDS011;53766;50.280;19.160;2024-02-15T10:46:12;18.83;;;10.60;;
66856;SDS011;53766;50.280;19.160;2024-02-15T10:48:40;19.15;;;11.25;;
66856;SDS011;53766;50.280;19.160;2024-02-15T10:51:09;18.75;;;10.85;;
66856;SDS011;53766;50.280;19.160;2024-02-15T10:53:39;19.00;;;11.10;;
66856;SDS011;53766;50.280;19.160;2024-02-15T10:56:15;17.17;;;10.23;;
66856;SDS011;53766;50.280;19.160;2024-02-15T10:58:47;17.15;;;10.70;;
66856;SDS011;53766;50.280;19.160;2024-02-15T11:01:18;17.35;;;10.68;;
66856;SDS011;53766;50.280;19.160;2024-02-15T11:03:50;16.15;;;10.57;;
66856;SDS011;53766;50.280;19.160;2024-02-15T11:06:23;16.13;;;10.20;;
66856;SDS011;53766;50.280;19.160;2024-02-15T11:08:54;16.95;;;10.70;;
66856;SDS011;53766;50.280;19.160;2024-02-15T11:11:23;18.60;;;10.18;;
66856;SDS011;53766;50.280;19.160;2024-02-15T11:14:16;17.13;;;9.98;;
66856;SDS011;53766;50.280;19.160;2024-02-15T11:16:59;15.82;;;9.65;;
66856;SDS011;53766;50.280;19.160;2024-02-15T11:22:07;17.65;;;10.63;;
66856;SDS011;53766;50.280;19.160;2024-02-15T11:24:45;16.00;;;9.77;;
66856;SDS011;53766;50.280;19.160;2024-02-15T11:35:24;17.00;;;10.05;;
66856;SDS011;53766;50.280;19.160;2024-02-15T11:37:54;15.45;;;9.50;;
66856;SDS011;53766;50.280;19.160;2024-02-15T11:43:09;16.33;;;10.10;;
66856;SDS011;53766;50.280;19.160;2024-02-15T11:46:01;15.73;;;9.20;;
66856;SDS011;53766;50.280;19.160;2024-02-15T11:48:30;15.98;;;9.55;;
66856;SDS011;53766;50.280;19.160;2024-02-15T11:50:58;17.83;;;9.85;;
66856;SDS011;53766;50.280;19.160;2024-02-15T11:53:27;16.65;;;9.60;;
66856;SDS011;53766;50.280;19.160;2024-02-15T11:55:55;15.55;;;9.75;;
66856;SDS011;53766;50.280;19.160;2024-02-15T11:58:28;14.85;;;9.30;;
66856;SDS011;53766;50.280;19.160;2024-02-15T12:01:08;15.20;;;8.70;;
66856;SDS011;53766;50.280;19.160;2024-02-15T12:03:55;14.15;;;9.23;;
66856;SDS011;53766;50.280;19.160;2024-02-15T12:06:41;16.02;;;9.35;;
66856;SDS011;53766;50.280;19.160;2024-02-15T12:09:27;14.77;;;8.70;;
66856;SDS011;53766;50.280;19.160;2024-02-15T12:12:14;14.73;;;8.40;;
66856;SDS011;53766;50.280;19.160;2024-02-15T12:15:00;13.55;;;8.75;;
66856;SDS011;53766;50.280;19.160;2024-02-15T12:17:46;16.80;;;9.43;;
66856;SDS011;53766;50.280;19.160;2024-02-15T12:20:50;13.98;;;8.48;;
66856;SDS011;53766;50.280;19.160;2024-02-15T12:23:17;14.23;;;9.13;;
66856;SDS011;53766;50.280;19.160;2024-02-15T12:25:50;15.70;;;9.05;;
66856;SDS011;53766;50.280;19.160;2024-02-15T12:28:19;13.60;;;8.97;;
66856;SDS011;53766;50.280;19.160;2024-02-15T12:30:46;15.00;;;8.70;;
66856;SDS011;53766;50.280;19.160;2024-02-15T12:33:22;14.30;;;8.68;;
66856;SDS011;53766;50.280;19.160;2024-02-15T12:35:50;14.18;;;8.50;;
66856;SDS011;53766;50.280;19.160;2024-02-15T12:38:18;14.45;;;8.73;;
66856;SDS011;53766;50.280;19.160;2024-02-15T12:40:46;12.82;;;7.97;;
66856;SDS011;53766;50.280;19.160;2024-02-15T12:43:16;13.95;;;8.13;;
66856;SDS011;53766;50.280;19.160;2024-02-15T12:45:43;13.80;;;8.52;;
66856;SDS011;53766;50.280;19.160;2024-02-15T12:48:11;14.20;;;8.50;;
66856;SDS011;53766;50.280;19.160;2024-02-15T12:50:39;12.82;;;8.35;;
66856;SDS011;53766;50.280;19.160;2024-02-15T12:53:07;13.00;;;8.48;;
66856;SDS011;53766;50.280;19.160;2024-02-15T12:55:35;14.25;;;8.55;;
66856;SDS011;53766;50.280;19.160;2024-02-15T12:58:04;14.98;;;8.52;;
66856;SDS011;53766;50.280;19.160;2024-02-15T13:00:36;13.25;;;8.25;;
66856;SDS011;53766;50.280;19.160;2024-02-15T13:03:08;13.95;;;7.97;;
66856;SDS011;53766;50.280;19.160;2024-02-15T13:05:39;14.05;;;8.15;;
66856;SDS011;53766;50.280;19.160;2024-02-15T13:08:08;12.63;;;7.95;;
66856;SDS011;53766;50.280;19.160;2024-02-15T13:10:41;13.38;;;8.02;;
66856;SDS011;53766;50.280;19.160;2024-02-15T13:13:10;13.55;;;8.15;;
66856;SDS011;53766;50.280;19.160;2024-02-15T13:15:37;10.90;;;7.18;;
66856;SDS011;53766;50.280;19.160;2024-02-15T13:18:06;12.82;;;8.05;;
66856;SDS011;53766;50.280;19.160;2024-02-15T13:20:37;13.20;;;7.97;;
66856;SDS011;53766;50.280;19.160;2024-02-15T13:23:06;13.50;;;8.05;;
66856;SDS011;53766;50.280;19.160;2024-02-15T13:25:37;12.93;;;7.90;;
66856;SDS011;53766;50.280;19.160;2024-02-15T13:28:07;12.77;;;8.07;;
66856;SDS011;53766;50.280;19.160;2024-02-15T13:30:37;13.48;;;7.82;;
66856;SDS011;53766;50.280;19.160;2024-02-15T13:33:05;13.55;;;7.43;;
66856;SDS011;53766;50.280;19.160;2024-02-15T13:35:33;12.50;;;7.47;;
66856;SDS011;53766;50.280;19.160;2024-02-15T13:38:01;12.90;;;7.57;;
66856;SDS011;53766;50.280;19.160;2024-02-15T13:40:29;11.85;;;7.93;;
66856;SDS011;53766;50.280;19.160;2024-02-15T13:43:00;12.55;;;7.82;;
66856;SDS011;53766;50.280;19.160;2024-02-15T13:45:32;11.15;;;7.25;;
66856;SDS011;53766;50.280;19.160;2024-02-15T13:48:06;12.45;;;7.63;;
66856;SDS011;53766;50.280;19.160;2024-02-15T13:50:36;10.75;;;7.05;;
66856;SDS011;53766;50.280;19.160;2024-02-15T13:53:07;12.73;;;7.57;;
66856;SDS011;53766;50.280;19.160;2024-02-15T13:55:37;11.35;;;7.32;;
66856;SDS011;53766;50.280;19.160;2024-02-15T13:58:05;12.45;;;7.43;;
66856;SDS011;53766;50.280;19.160;2024-02-15T14:00:35;12.73;;;7.60;;
66856;SDS011;53766;50.280;19.160;2024-02-15T14:03:04;11.70;;;7.35;;
66856;SDS011;53766;50.280;19.160;2024-02-15T14:05:33;12.55;;;7.72;;
66856;SDS011;53766;50.280;19.160;2024-02-15T14:08:02;11.52;;;6.65;;
66856;SDS011;53766;50.280;19.160;2024-02-15T14:10:38;11.80;;;7.15;;
66856;SDS011;53766;50.280;19.160;2024-02-15T14:13:06;10.60;;;7.13;;
66856;SDS011;53766;50.280;19.160;2024-02-15T14:15:38;12.15;;;7.28;;
66856;SDS011;53766;50.280;19.160;2024-02-15T14:18:08;12.68;;;7.13;;
66856;SDS011;53766;50.280;19.160;2024-02-15T14:20:47;9.80;;;6.70;;
66856;SDS011;53766;50.280;19.160;2024-02-15T14:23:16;10.80;;;6.72;;
66856;SDS011;53766;50.280;19.160;2024-02-15T14:25:43;12.30;;;7.25;;
66856;SDS011;53766;50.280;19.160;2024-02-15T14:28:13;10.88;;;7.07;;
66856;SDS011;53766;50.280;19.160;2024-02-15T14:30:42;9.25;;;6.63;;
66856;SDS011;53766;50.280;19.160;2024-02-15T14:33:29;10.27;;;6.32;;
66856;SDS011;53766;50.280;19.160;2024-02-15T14:36:00;11.18;;;6.57;;
66856;SDS011;53766;50.280;19.160;2024-02-15T14:38:29;11.40;;;6.78;;
66856;SDS011;53766;50.280;19.160;2024-02-15T14:40:57;11.27;;;6.72;;
66856;SDS011;53766;50.280;19.160;2024-02-15T14:43:27;11.10;;;6.97;;
66856;SDS011;53766;50.280;19.160;2024-02-15T14:45:55;10.75;;;6.90;;
66856;SDS011;53766;50.280;19.160;2024-02-15T14:48:25;9.95;;;6.07;;
66856;SDS011;53766;50.280;19.160;2024-02-15T14:50:53;9.50;;;6.45;;
66856;SDS011;53766;50.280;19.160;2024-02-15T14:53:24;10.20;;;6.68;;